Terminal Aerodrome Forecast
Issued by NWS

Home | Current Version | Previous Version | Text Only | Print | Product List | Glossary On
Versions: 1 2 3 4 5 6 7 8 9 10 11 12 13 14 15 16 17 18 19 20 21 22 23 24 25
000
FTPA31 PHFO 101143
TAFHNY
TAF
PHNY 101143Z 1012/1112 10005KT P6SM VCSH SCT010 BKN100
      TEMPO 1012/1014 -SHRA
     FM102100 20007KT P6SM VCSH SCT010 BKN035 BKN100
     FM110500 10005KT P6SM VCSH SCT025 BKN035=

USA.gov is the U.S. government's official web portal to all federal, state and local government web resources and services.